createdAt,value
2022-11-28T00:01:43.751Z,101272.31
2022-11-28T00:04:14.411Z,101261.00
2022-11-28T00:06:46.444Z,101261.84
2022-11-28T00:09:16.259Z,101257.47
2022-11-28T00:11:46.669Z,101257.41
2022-11-28T00:14:16.289Z,101253.06
2022-11-28T00:16:45.311Z,101251.34
2022-11-28T00:19:15.781Z,101249.63
2022-11-28T00:21:44.428Z,101240.03
2022-11-28T00:24:12.965Z,101240.91
2022-11-28T00:26:42.904Z,101241.75
2022-11-28T00:29:12.465Z,101237.56
2022-11-28T00:31:43.935Z,101234.94
2022-11-28T00:34:16.000Z,101230.56
2022-11-28T00:36:47.160Z,101234.94
2022-11-28T00:39:17.310Z,101237.56
2022-11-28T00:41:46.548Z,101232.25
2022-11-28T00:44:15.501Z,101243.53
2022-11-28T00:46:44.540Z,101234.00
2022-11-28T00:49:13.392Z,101227.09
2022-11-28T00:51:43.400Z,101234.09
2022-11-28T00:54:12.351Z,101227.91
2022-11-28T00:56:41.885Z,101236.53
2022-11-28T00:59:10.497Z,101232.16
2022-11-28T01:01:41.018Z,101226.88
2022-11-28T01:04:12.187Z,101226.78
2022-11-28T01:06:46.349Z,101225.88
2022-11-28T01:09:17.757Z,101216.22
2022-11-28T01:11:46.918Z,101219.59
2022-11-28T01:14:16.880Z,101210.91
2022-11-28T01:16:45.638Z,101211.75
2022-11-28T01:19:14.756Z,101200.47
2022-11-28T01:21:44.719Z,101207.31
2022-11-28T01:24:14.157Z,101201.25
2022-11-28T01:26:43.222Z,101190.03
2022-11-28T01:29:12.423Z,101190.00
2022-11-28T01:31:41.325Z,101201.22
2022-11-28T01:34:10.270Z,101182.00
2022-11-28T01:36:38.856Z,101182.97
2022-11-28T01:39:10.542Z,101176.81
2022-11-28T01:41:39.715Z,101176.94
2022-11-28T01:44:48.407Z,101174.19
2022-11-28T01:47:18.984Z,101174.16
2022-11-28T01:49:49.065Z,101175.88
2022-11-28T01:52:20.671Z,101172.44
2022-11-28T01:54:55.175Z,101170.72
2022-11-28T01:57:26.624Z,101162.00
2022-11-28T02:00:00.169Z,101160.22
2022-11-28T02:02:34.559Z,101157.72
2022-11-28T02:05:03.431Z,101157.78
2022-11-28T02:07:33.428Z,101157.75
2022-11-28T02:10:06.793Z,101150.06
2022-11-28T02:12:57.226Z,101154.41
2022-11-28T02:15:52.776Z,101161.38
2022-11-28T02:18:34.160Z,101157.97
2022-11-28T02:21:39.698Z,101149.25
2022-11-28T02:24:41.672Z,101152.72
2022-11-28T02:27:24.181Z,101147.41
2022-11-28T02:30:17.044Z,101148.19
2022-11-28T02:32:56.086Z,101140.28
2022-11-28T02:35:34.513Z,101137.47
2022-11-28T02:38:11.032Z,101139.13
2022-11-28T02:40:49.455Z,101128.53
2022-11-28T02:43:25.112Z,101130.16
2022-11-28T02:45:59.888Z,101125.78
2022-11-28T02:48:38.476Z,101122.25
2022-11-28T02:51:12.437Z,101130.06
2022-11-28T02:53:45.751Z,101091.28
2022-11-28T02:56:14.834Z,101106.88
2022-11-28T02:58:43.414Z,101113.50
2022-11-28T03:01:20.460Z,101118.53
2022-11-28T03:04:17.630Z,101123.69
2022-11-28T03:06:58.414Z,101127.03
2022-11-28T03:10:06.520Z,101130.59
2022-11-28T03:12:51.973Z,101113.50
2022-11-28T03:15:25.063Z,101116.06
2022-11-28T03:18:02.431Z,101108.97
2022-11-28T03:20:44.752Z,101106.19
2022-11-28T03:23:17.236Z,101102.94
2022-11-28T03:25:58.058Z,101096.16
2022-11-28T03:28:32.004Z,101098.72
2022-11-28T03:31:04.152Z,101094.22
2022-11-28T03:33:35.747Z,101098.56
2022-11-28T03:36:09.708Z,101099.44
2022-11-28T03:38:42.978Z,101099.53
2022-11-28T03:41:17.599Z,101103.09
2022-11-28T03:43:53.141Z,101100.44
2022-11-28T03:46:25.383Z,101098.63
2022-11-28T03:48:57.936Z,101097.88
2022-11-28T03:51:34.063Z,101085.72
2022-11-28T03:54:07.172Z,101095.31
2022-11-28T03:56:42.556Z,101089.31
2022-11-28T03:59:17.964Z,101085.03
2022-11-28T04:01:54.537Z,101085.91
2022-11-28T04:04:30.300Z,101084.22
2022-11-28T04:07:10.912Z,101090.47
2022-11-28T04:09:46.220Z,101086.22
2022-11-28T04:12:22.584Z,101086.28
2022-11-28T04:14:56.371Z,101085.41
2022-11-28T04:17:32.639Z,101082.81
2022-11-28T04:20:07.055Z,101081.91
2022-11-28T04:22:45.021Z,101088.06
2022-11-28T04:25:17.846Z,101075.03
2022-11-28T04:27:50.713Z,101081.13
2022-11-28T04:30:19.550Z,101077.66
2022-11-28T04:32:51.489Z,101070.72
2022-11-28T04:35:25.451Z,101069.00
2022-11-28T04:37:57.246Z,101060.34
2022-11-28T04:40:26.972Z,101064.75
2022-11-28T04:42:58.651Z,101060.41
2022-11-28T04:45:31.585Z,101062.22
2022-11-28T04:48:00.773Z,101050.94
2022-11-28T04:50:36.483Z,101045.81
2022-11-28T04:53:13.896Z,101036.97
2022-11-28T04:55:47.479Z,101040.53
2022-11-28T04:58:23.379Z,101040.63
2022-11-28T05:00:54.054Z,101038.88
2022-11-28T05:03:23.648Z,101043.38
2022-11-28T05:05:53.288Z,101038.97
2022-11-28T05:08:23.463Z,101032.03
2022-11-28T05:10:52.152Z,101046.88
2022-11-28T05:13:20.888Z,101036.63
2022-11-28T05:15:49.468Z,101036.72
2022-11-28T05:18:18.014Z,101035.94
2022-11-28T05:20:46.636Z,101036.81
2022-11-28T05:23:15.411Z,101036.09
2022-11-28T05:25:45.342Z,101031.63
2022-11-28T05:28:13.894Z,101038.63
2022-11-28T05:30:42.494Z,101033.47
2022-11-28T05:33:11.034Z,101024.66
2022-11-28T05:35:40.939Z,101022.81
2022-11-28T05:38:13.567Z,101019.34
2022-11-28T05:40:44.401Z,101015.13
2022-11-28T05:43:13.331Z,101018.75
2022-11-28T05:45:42.060Z,101010.72
2022-11-28T05:48:10.705Z,101012.59
2022-11-28T05:50:40.789Z,101000.41
2022-11-28T05:53:10.148Z,101014.34
2022-11-28T05:55:40.339Z,101017.97
2022-11-28T05:58:10.601Z,101011.94
2022-11-28T06:00:39.187Z,101015.50
2022-11-28T06:03:08.253Z,101014.66
2022-11-28T06:05:43.716Z,101012.03
2022-11-28T06:08:13.894Z,101004.06
2022-11-28T06:10:42.503Z,101004.97
2022-11-28T06:13:12.401Z,100998.91
2022-11-28T06:15:45.406Z,100976.00
2022-11-28T06:18:13.945Z,100997.09
2022-11-28T06:20:42.520Z,100994.50
2022-11-28T06:23:11.137Z,100994.50
2022-11-28T06:25:39.686Z,101004.94
2022-11-28T06:28:08.251Z,100999.66
2022-11-28T06:30:38.191Z,100997.81
2022-11-28T06:33:06.770Z,100995.13
2022-11-28T06:35:35.326Z,100993.28
2022-11-28T06:38:03.956Z,100984.56
2022-11-28T06:40:32.498Z,100985.38
2022-11-28T06:43:01.066Z,100990.59
2022-11-28T06:45:29.660Z,100989.69
2022-11-28T06:47:59.613Z,100988.72
2022-11-28T06:50:28.175Z,100982.63
2022-11-28T06:52:56.850Z,100984.47
2022-11-28T06:55:25.380Z,100980.94
2022-11-28T06:57:54.020Z,100984.34
2022-11-28T07:00:22.975Z,100983.38
2022-11-28T07:02:51.706Z,100983.31
2022-11-28T07:05:22.968Z,100980.72
2022-11-28T07:07:54.489Z,100974.56
2022-11-28T07:10:24.047Z,100971.13
2022-11-28T07:12:55.530Z,100970.25
2022-11-28T07:15:24.250Z,100972.06
2022-11-28T07:17:53.120Z,100961.72
2022-11-28T07:20:23.081Z,100960.97
2022-11-28T07:22:51.685Z,100959.34
2022-11-28T07:25:20.416Z,100958.56
2022-11-28T07:27:49.020Z,100959.47
2022-11-28T07:30:17.799Z,100957.75
2022-11-28T07:32:46.355Z,100963.13
2022-11-28T07:35:14.900Z,100955.50
2022-11-28T07:37:44.914Z,100959.19
2022-11-28T07:40:13.914Z,100954.94
2022-11-28T07:42:42.459Z,100958.56
2022-11-28T07:45:12.249Z,100950.72
2022-11-28T07:47:40.850Z,100948.25
2022-11-28T07:50:11.437Z,100942.19
2022-11-28T07:52:40.064Z,100940.47
2022-11-28T07:55:10.303Z,100936.97
2022-11-28T07:57:39.267Z,100930.00
2022-11-28T08:00:09.359Z,100926.50
2022-11-28T08:02:41.141Z,100923.09
2022-11-28T08:05:10.553Z,100921.44
2022-11-28T08:07:39.314Z,100915.44
2022-11-28T08:10:10.844Z,100926.84
2022-11-28T08:12:39.441Z,100920.81
2022-11-28T08:15:08.639Z,100913.19
2022-11-28T08:17:37.304Z,100908.97
2022-11-28T08:20:07.359Z,100902.09
2022-11-28T08:22:36.137Z,100910.94
2022-11-28T08:25:07.209Z,100904.97
2022-11-28T08:27:37.579Z,100903.41
2022-11-28T08:30:07.750Z,100905.31
2022-11-28T08:32:36.612Z,100899.34
2022-11-28T08:35:05.676Z,100895.88
2022-11-28T08:37:34.373Z,100897.69
2022-11-28T08:40:03.224Z,100899.53
2022-11-28T08:42:31.798Z,100899.53
2022-11-28T08:45:01.756Z,100898.75
2022-11-28T08:47:30.602Z,100905.78
2022-11-28T08:49:59.464Z,100911.91
2022-11-28T08:52:28.372Z,100898.13
2022-11-28T08:54:57.162Z,100899.09
2022-11-28T08:57:25.974Z,100894.00
2022-11-28T08:59:54.972Z,100906.31
2022-11-28T09:02:26.211Z,100910.63
2022-11-28T09:04:54.901Z,100903.69
2022-11-28T09:07:23.591Z,100915.06
2022-11-28T09:09:54.150Z,100904.59
2022-11-28T09:12:23.336Z,100908.19
2022-11-28T09:14:52.545Z,100906.47
2022-11-28T09:17:21.563Z,100915.25
2022-11-28T09:19:51.719Z,100909.94
2022-11-28T09:22:20.307Z,100918.66
2022-11-28T09:24:48.873Z,100900.34
2022-11-28T09:27:17.447Z,100906.53
2022-11-28T09:29:46.002Z,100902.19
2022-11-28T09:32:15.278Z,100903.09
2022-11-28T09:34:44.096Z,100898.63
2022-11-28T09:37:14.246Z,100891.63
2022-11-28T09:40:04.876Z,100884.63
2022-11-28T09:42:42.007Z,100868.09
2022-11-28T09:45:18.197Z,100872.53
2022-11-28T09:47:52.906Z,100841.00
2022-11-28T09:50:27.025Z,100867.34
2022-11-28T09:53:02.842Z,100865.69
2022-11-28T09:55:39.909Z,100844.63
2022-11-28T09:58:17.456Z,100865.59
2022-11-28T10:00:55.733Z,100859.56
2022-11-28T10:03:40.816Z,100863.94
2022-11-28T10:06:19.069Z,100859.59
2022-11-28T10:09:06.780Z,100863.09
2022-11-28T10:11:47.718Z,100861.38
2022-11-28T10:14:41.293Z,100858.75
2022-11-28T10:17:23.266Z,100864.84
2022-11-28T10:19:57.926Z,100863.97
2022-11-28T10:22:36.586Z,100864.00
2022-11-28T10:25:15.677Z,100853.50
2022-11-28T10:27:44.700Z,100858.75
2022-11-28T10:30:23.530Z,100862.28
2022-11-28T10:33:07.909Z,100855.25
2022-11-28T10:35:45.083Z,100848.22
2022-11-28T10:38:14.833Z,100849.13
2022-11-28T10:40:51.351Z,100848.25
2022-11-28T10:43:33.531Z,100846.47
2022-11-28T10:46:24.341Z,100846.44
2022-11-28T10:49:10.433Z,100842.06
2022-11-28T10:51:49.841Z,100836.78
2022-11-28T10:54:28.756Z,100832.41
2022-11-28T10:57:12.623Z,100842.91
2022-11-28T10:59:54.269Z,100837.63
2022-11-28T11:02:31.192Z,100842.91
2022-11-28T11:04:59.905Z,100835.84
2022-11-28T11:07:31.116Z,100832.31
2022-11-28T11:10:07.412Z,100839.34
2022-11-28T11:12:37.419Z,100841.91
2022-11-28T11:15:21.742Z,100834.00
2022-11-28T11:17:51.891Z,100833.91
2022-11-28T11:20:34.554Z,100833.88
2022-11-28T11:23:13.896Z,100823.34
2022-11-28T11:25:52.667Z,100826.00
2022-11-28T11:28:48.828Z,100825.97
2022-11-28T11:31:22.748Z,100816.34
2022-11-28T11:33:54.408Z,100823.38
2022-11-28T11:36:28.893Z,100814.66
2022-11-28T11:39:09.361Z,100803.28
2022-11-28T11:41:39.155Z,100814.66
2022-11-28T11:44:39.318Z,100805.88
2022-11-28T11:47:11.553Z,100811.19
2022-11-28T11:49:43.759Z,100806.78
2022-11-28T11:52:23.262Z,100810.31
2022-11-28T11:54:59.263Z,100806.78
2022-11-28T11:57:34.341Z,100810.31
2022-11-28T12:00:08.264Z,100800.59
2022-11-28T12:02:47.709Z,100791.81
2022-11-28T12:05:19.626Z,100795.31
2022-11-28T12:07:56.276Z,100792.69
2022-11-28T12:10:28.299Z,100795.34
2022-11-28T12:12:57.400Z,100797.94
2022-11-28T12:15:39.488Z,100796.13
2022-11-28T12:18:24.434Z,100789.97
2022-11-28T12:21:12.522Z,100797.81
2022-11-28T12:24:11.032Z,100791.00
2022-11-28T12:26:47.275Z,100791.06
2022-11-28T12:29:36.459Z,100791.16
2022-11-28T12:32:23.696Z,100785.09
2022-11-28T12:35:04.752Z,100786.84
2022-11-28T12:38:12.530Z,100789.41
2022-11-28T12:40:42.943Z,100791.16
2022-11-28T12:43:28.484Z,100776.28
2022-11-28T12:46:03.612Z,100779.81
2022-11-28T12:49:01.233Z,100762.31
2022-11-28T12:51:42.132Z,100771.09
2022-11-28T12:54:33.371Z,100764.94
2022-11-28T12:57:11.118Z,100763.16
2022-11-28T12:59:51.705Z,100770.19
2022-11-28T13:02:30.624Z,100770.19
2022-11-28T13:05:29.687Z,100773.72
2022-11-28T13:08:19.156Z,100771.09
2022-11-28T13:10:52.514Z,100771.97
2022-11-28T13:13:25.059Z,100774.63
2022-11-28T13:16:08.542Z,100774.63
2022-11-28T13:18:43.154Z,100776.38
2022-11-28T13:21:29.505Z,100769.38
2022-11-28T13:24:07.354Z,100778.16
2022-11-28T13:26:51.431Z,100779.88
2022-11-28T13:29:33.363Z,100783.41
2022-11-28T13:32:09.548Z,100784.28
2022-11-28T13:34:38.936Z,100779.03
2022-11-28T13:40:17.832Z,100786.91
2022-11-28T13:43:07.207Z,100780.78
2022-11-28T13:45:39.756Z,100787.78
2022-11-28T13:51:37.097Z,100785.16
2022-11-28T13:54:38.459Z,100776.38
2022-11-28T13:57:28.604Z,100783.41
2022-11-28T14:00:07.200Z,100783.41
2022-11-28T14:02:48.268Z,100788.66
2022-11-28T14:05:36.729Z,100786.03
2022-11-28T14:08:07.174Z,100780.78
2022-11-28T14:10:59.277Z,100781.66
2022-11-28T14:13:54.350Z,100776.41
2022-11-28T14:16:43.200Z,100777.28
2022-11-28T14:19:26.396Z,100779.03
2022-11-28T14:22:07.383Z,100779.91
2022-11-28T14:24:56.511Z,100778.16
2022-11-28T14:27:29.271Z,100776.41
2022-11-28T14:30:01.039Z,100781.66
2022-11-28T14:32:36.445Z,100779.94
2022-11-28T14:35:08.107Z,100770.28
2022-11-28T14:37:58.957Z,100778.19
2022-11-28T14:41:03.128Z,100775.53
2022-11-28T14:43:33.790Z,100772.91
2022-11-28T14:46:29.502Z,100770.28
2022-11-28T14:49:19.234Z,100774.66
2022-11-28T14:52:30.883Z,100775.53
2022-11-28T14:54:58.276Z,100779.03
2022-11-28T14:57:30.683Z,100776.41
2022-11-28T15:00:07.827Z,100778.13
2022-11-28T15:02:58.526Z,100770.25
2022-11-28T15:05:40.845Z,100776.31
2022-11-28T15:08:38.026Z,100771.91
2022-11-28T15:11:24.955Z,100776.25
2022-11-28T15:14:11.968Z,100777.97
2022-11-28T15:16:49.658Z,100792.81
2022-11-28T15:19:30.246Z,100777.06
2022-11-28T15:21:59.474Z,100784.91
2022-11-28T15:24:30.888Z,100781.41
2022-11-28T15:27:16.105Z,100775.25
2022-11-28T15:29:53.669Z,100776.09
2022-11-28T15:32:22.846Z,100780.50
2022-11-28T15:35:00.241Z,100772.63
2022-11-28T15:37:32.322Z,100774.34
2022-11-28T15:40:04.264Z,100776.97
2022-11-28T15:42:35.465Z,100776.09
2022-11-28T15:45:10.268Z,100780.47
2022-11-28T15:47:40.645Z,100777.84
2022-11-28T15:50:19.522Z,100779.56
2022-11-28T15:52:56.049Z,100776.94
2022-11-28T15:55:24.896Z,100777.81
2022-11-28T15:58:10.407Z,100785.69
2022-11-28T16:00:42.686Z,100783.91
2022-11-28T16:03:17.221Z,100781.25
2022-11-28T16:05:49.320Z,100775.97
2022-11-28T16:08:28.270Z,100779.47
2022-11-28T16:10:58.150Z,100768.94
2022-11-28T16:13:27.605Z,100773.31
2022-11-28T16:15:58.442Z,100765.44
2022-11-28T16:18:28.847Z,100768.00
2022-11-28T16:21:00.974Z,100771.47
2022-11-28T16:23:33.839Z,100768.00
2022-11-28T16:26:04.438Z,100761.88
2022-11-28T16:28:35.320Z,100767.09
2022-11-28T16:31:10.973Z,100757.47
2022-11-28T16:33:45.899Z,100766.22
2022-11-28T16:36:24.704Z,100760.94
2022-11-28T16:39:04.417Z,100757.41
2022-11-28T16:41:34.089Z,100756.50
2022-11-28T16:44:07.009Z,100761.72
2022-11-28T16:46:42.767Z,100754.75
2022-11-28T16:49:34.149Z,100755.59
2022-11-28T16:52:40.490Z,100756.41
2022-11-28T16:55:40.980Z,100757.28
2022-11-28T16:58:19.144Z,100753.78
2022-11-28T17:01:00.474Z,100727.47
2022-11-28T17:03:44.911Z,100752.03
2022-11-28T17:06:18.674Z,100753.78
2022-11-28T17:08:49.276Z,100759.91
2022-11-28T17:11:20.109Z,100759.91
2022-11-28T17:13:49.152Z,100763.41
2022-11-28T17:16:19.920Z,100758.16
2022-11-28T17:18:49.309Z,100759.91
2022-11-28T17:21:25.053Z,100758.16
2022-11-28T17:23:57.425Z,100751.19
2022-11-28T17:26:27.937Z,100757.28
2022-11-28T17:28:58.492Z,100751.16
2022-11-28T17:31:27.692Z,100756.41
2022-11-28T17:33:56.409Z,100753.78
2022-11-28T17:36:25.850Z,100759.91
2022-11-28T17:38:58.782Z,100761.59
2022-11-28T17:41:32.412Z,100760.72
2022-11-28T17:44:03.233Z,100758.09
2022-11-28T17:46:32.788Z,100763.34
2022-11-28T17:49:01.417Z,100763.31
2022-11-28T17:51:30.118Z,100760.69
2022-11-28T17:54:00.692Z,100751.94
2022-11-28T17:56:31.301Z,100752.78
2022-11-28T17:59:00.673Z,100758.91
2022-11-28T18:01:31.737Z,100755.41
2022-11-28T18:04:00.653Z,100751.00
2022-11-28T18:06:29.489Z,100743.13
2022-11-28T18:09:04.863Z,100745.75
2022-11-28T18:11:36.880Z,100744.00
2022-11-28T18:14:05.557Z,100741.38
2022-11-28T18:16:36.265Z,100748.34
2022-11-28T18:19:05.329Z,100743.09
2022-11-28T18:21:34.459Z,100735.22
2022-11-28T18:24:04.726Z,100736.06
2022-11-28T18:26:33.902Z,100743.91
2022-11-28T18:29:02.627Z,100733.44
2022-11-28T18:31:32.414Z,100732.53
2022-11-28T18:34:03.714Z,100736.88
2022-11-28T18:36:36.486Z,100732.47
2022-11-28T18:39:09.170Z,100723.72
2022-11-28T18:41:39.858Z,100730.63
2022-11-28T18:44:11.815Z,100726.25
2022-11-28T18:46:40.991Z,100725.38
2022-11-28T18:49:12.111Z,100726.22
2022-11-28T18:51:40.819Z,100725.34
2022-11-28T18:54:16.228Z,100720.13
2022-11-28T18:56:47.986Z,100729.69
2022-11-28T18:59:16.775Z,100722.69
2022-11-28T19:01:45.464Z,100725.28
2022-11-28T19:04:15.652Z,100720.03
2022-11-28T19:06:48.321Z,100726.13
2022-11-28T19:09:19.579Z,100713.03
2022-11-28T19:11:48.426Z,100718.22
2022-11-28T19:14:19.006Z,100724.31
2022-11-28T19:16:49.453Z,100720.81
2022-11-28T19:19:19.493Z,100726.91
2022-11-28T19:21:50.638Z,100724.28
2022-11-28T19:24:21.277Z,100723.41
2022-11-28T19:26:52.210Z,100719.97
2022-11-28T19:29:21.207Z,100723.50
2022-11-28T19:31:50.596Z,100734.88
2022-11-28T19:34:20.800Z,100725.25
2022-11-28T19:36:52.316Z,100734.84
2022-11-28T19:39:24.936Z,100727.03
2022-11-28T19:41:55.125Z,100733.13
2022-11-28T19:44:26.989Z,100734.03
2022-11-28T19:46:56.381Z,100741.03
2022-11-28T19:49:26.445Z,100739.31
2022-11-28T19:51:55.766Z,100738.44
2022-11-28T19:54:26.554Z,100740.19
2022-11-28T19:56:57.035Z,100734.09
2022-11-28T19:59:27.319Z,100735.84
2022-11-28T20:01:56.244Z,100737.56
2022-11-28T20:04:25.083Z,100741.91
2022-11-28T20:06:54.251Z,100741.06
2022-11-28T20:09:23.363Z,100756.75
2022-11-28T20:11:53.871Z,100748.03
2022-11-28T20:14:23.268Z,100759.44
2022-11-28T20:16:51.970Z,100757.69
2022-11-28T20:19:20.931Z,100760.31
2022-11-28T20:21:50.095Z,100766.44
2022-11-28T20:24:18.928Z,100760.34
2022-11-28T20:26:50.509Z,100762.09
2022-11-28T20:29:26.961Z,100764.69
2022-11-28T20:31:57.189Z,100769.06
2022-11-28T20:34:26.948Z,100733.91
2022-11-28T20:36:58.573Z,100768.97
2022-11-28T20:39:27.988Z,100769.84
2022-11-28T20:41:56.628Z,100768.91
2022-11-28T20:44:27.480Z,100766.28
2022-11-28T20:46:56.675Z,100759.28
2022-11-28T20:49:25.292Z,100758.44
2022-11-28T20:51:53.943Z,100769.78
2022-11-28T20:54:25.998Z,100769.81
2022-11-28T20:59:44.836Z,100768.97
2022-11-28T21:02:13.719Z,100775.09
2022-11-28T21:04:42.260Z,100764.63
2022-11-28T21:07:10.840Z,100762.03
2022-11-28T21:09:39.406Z,100764.63
2022-11-28T21:12:08.777Z,100766.31
2022-11-28T21:14:37.410Z,100768.03
2022-11-28T21:17:07.381Z,100777.59
2022-11-28T21:19:36.088Z,100772.38
2022-11-28T21:22:04.680Z,100772.34
2022-11-28T21:24:33.330Z,100770.59
2022-11-28T21:27:01.886Z,100769.72
2022-11-28T21:29:30.728Z,100771.50
2022-11-28T21:31:59.427Z,100775.88
2022-11-28T21:34:29.454Z,100768.00
2022-11-28T21:36:58.053Z,100774.09
2022-11-28T21:39:26.687Z,100773.22
2022-11-28T21:41:55.282Z,100764.47
2022-11-28T21:44:23.861Z,100772.28
2022-11-28T21:46:52.467Z,100759.13
2022-11-28T21:49:21.275Z,100759.97
2022-11-28T21:51:51.300Z,100758.22
2022-11-28T21:54:20.061Z,100757.31
2022-11-28T21:56:49.046Z,100760.78
2022-11-28T21:59:17.615Z,100756.41
2022-11-28T22:01:47.994Z,100752.03
2022-11-28T22:04:16.662Z,100756.34
2022-11-28T22:06:45.309Z,100747.63
2022-11-28T22:09:16.660Z,100752.81
2022-11-28T22:11:45.247Z,100749.25
2022-11-28T22:14:14.524Z,100752.72
2022-11-28T22:16:43.337Z,100749.19
2022-11-28T22:19:11.885Z,100756.94
2022-11-28T22:21:51.811Z,100761.22
2022-11-28T22:24:23.344Z,100757.63
2022-11-28T22:26:52.110Z,100760.22
2022-11-28T22:29:20.748Z,100760.22
2022-11-28T22:31:50.992Z,100762.78
2022-11-28T22:34:20.292Z,100769.72
2022-11-28T22:36:49.567Z,100768.00
2022-11-28T22:39:18.188Z,100756.69
2022-11-28T22:41:48.114Z,100760.19
2022-11-28T22:44:16.733Z,100759.31
2022-11-28T22:46:45.401Z,100762.81
2022-11-28T22:49:14.263Z,100761.97
2022-11-28T22:51:43.015Z,100765.44
2022-11-28T22:54:14.117Z,100764.53
2022-11-28T22:56:43.099Z,100767.16
2022-11-28T22:59:15.165Z,100762.78
2022-11-28T23:01:44.467Z,100764.56
2022-11-28T23:04:13.900Z,100759.34
2022-11-28T23:06:43.591Z,100760.22
2022-11-28T23:09:14.765Z,100755.06
2022-11-28T23:11:43.675Z,100754.19
2022-11-28T23:14:15.267Z,100754.16
2022-11-28T23:16:45.335Z,100759.34
2022-11-28T23:19:16.246Z,100755.91
2022-11-28T23:21:47.215Z,100754.19
2022-11-28T23:24:17.681Z,100764.69
2022-11-28T23:26:48.150Z,100766.41
2022-11-28T23:29:18.710Z,100764.69
2022-11-28T23:31:48.521Z,100760.31
2022-11-28T23:34:18.172Z,100762.09
2022-11-28T23:36:47.836Z,100763.88
2022-11-28T23:39:17.975Z,100759.53
2022-11-28T23:41:47.270Z,100759.53
2022-11-28T23:44:18.669Z,100756.03
2022-11-28T23:46:48.146Z,100695.44
2022-11-28T23:49:17.281Z,100762.13
2022-11-28T23:51:45.867Z,100758.63
2022-11-28T23:54:14.775Z,100756.84
2022-11-28T23:56:44.171Z,100759.41
2022-11-28T23:59:13.591Z,100762.00
